SBKG/CPV METAR and TAF weather

Enter ICAO airport designator
Station Type Date Time Source
SBKG METAR 2020/11/25 22:00 UTC NOAA

SBKG 252200Z 09013KT CAVOK 24/19 Q1015


Station Type Date Time Source
SBKG Decoded METAR 2020/11/25 22:00 UTC NOAA

Campina Grande, Brazil (SBKG) 07-13S 035-53W
Nov 25, 2020 - 05:00 PM EST / 2020.11.25 2200 UTC
Wind: from the E (090 degrees) at 15 MPH (13 KT):0
Visibility: greater than 7 mile(s):0
Temperature: 75 F (24 C)
Dew Point: 66 F (19 C)
Relative Humidity: 73%
Pressure (altimeter): 29.97 in. Hg (1015 hPa)
ob: SBKG 252200Z 09013KT CAVOK 24/19 Q1015
cycle: 22

Station Type Date Time Source
SBKG TAF 2020/11/25 18:27 UTC NOAA

TAF SBKG 251500Z 2518/2606 11015KT 9999 BKN025 TX29/2518Z TN21/2603Z
BECMG 2522/2524 09010KT FEW015
BECMG 2603/2605 12008KT SCT012
RMK PFV

Example: see airport list